Time;durP1;ratioP1;P1;durP2;ratioP2;P2;SDS_P1;SDS_P2;PMS_P1;PMS_P2;Temp;Humidity;BMP_temperature;BMP_pressure;BME280_temperature;BME280_humidity;BME280_pressure;Samples;Min_cycle;Max_cycle;Signal;HPM_P1;HPM_P2
2022/11/27 00:01:46;;;;;;;;;;;0.10;99.90;;;;;;5025798;28;19951;-72
2022/11/27 00:04:18;;;;;;;;;;;0.00;99.90;;;;;;5032162;28;19925;-72
2022/11/27 00:06:49;;;;;;;;;;;-0.10;99.90;;;;;;5031718;28;19925;-72
2022/11/27 00:09:21;;;;;;;;;;;-0.10;99.90;;;;;;5031070;28;19980;-72
2022/11/27 00:11:53;;;;;;;;;;;-0.10;99.90;;;;;;5028229;28;20317;-72
2022/11/27 00:14:19;;;;;;;;;;;-0.20;99.90;;;;;;5035151;28;19937;-72
2022/11/27 00:16:51;;;;;;;;;;;-0.20;99.90;;;;;;5031073;28;19979;-72
2022/11/27 00:19:22;;;;;;;;;;;-0.20;99.90;;;;;;5021325;28;19930;-72
2022/11/27 00:21:49;;;;;;;;;;;-0.30;99.90;;;;;;5029794;28;19929;-72
2022/11/27 00:24:22;;;;;;;;;;;-0.30;99.90;;;;;;5036404;28;20339;-72
2022/11/27 00:26:53;;;;;;;;;;;-0.30;99.90;;;;;;5029835;28;19929;-72
2022/11/27 00:29:27;;;;;;;;;;;-0.30;99.90;;;;;;5023243;28;19955;-72
2022/11/27 00:32:00;;;;;;;;;;;-0.30;99.90;;;;;;5028535;28;19932;-72
2022/11/27 00:34:32;;;;;;;;;;;-0.30;99.90;;;;;;5016174;28;19925;-72
2022/11/27 00:37:03;;;;;;;;;;;-0.30;99.90;;;;;;5009614;28;19929;-72
2022/11/27 00:39:35;;;;;;;;;;;-0.30;99.90;;;;;;5025744;28;20303;-72
2022/11/27 00:42:06;;;;;;;;;;;-0.50;99.90;;;;;;5026093;28;19925;-72
2022/11/27 00:44:38;;;;;;;;;;;-0.50;99.90;;;;;;5030054;28;19929;-73
2022/11/27 00:47:09;;;;;;;;;;;-0.50;99.90;;;;;;5031103;28;19940;-72
2022/11/27 00:49:41;;;;;;;;;;;-0.50;99.90;;;;;;5030732;28;19983;-72
2022/11/27 00:52:13;;;;;;;;;;;-0.50;99.90;;;;;;5017700;28;19929;-72
2022/11/27 00:54:44;;;;;;;;;;;-0.50;99.90;;;;;;5030023;28;19941;-72
2022/11/27 00:57:16;;;;;;;;;;;-0.50;99.90;;;;;;5030527;28;19929;-72
2022/11/27 00:59:48;;;;;;;;;;;-0.60;99.90;;;;;;5025929;28;19925;-72
2022/11/27 01:02:20;;;;;;;;;;;-0.60;99.90;;;;;;5021972;28;19925;-72
2022/11/27 01:04:51;;;;;;;;;;;-0.50;99.90;;;;;;5032485;28;19933;-72
2022/11/27 01:07:24;;;;;;;;;;;-0.60;99.90;;;;;;5023450;28;19929;-72
2022/11/27 01:09:51;;;;;;;;;;;-0.60;99.90;;;;;;5029658;28;19933;-72
2022/11/27 01:12:22;;;;;;;;;;;-0.70;99.90;;;;;;5025633;28;20432;-73
2022/11/27 01:14:49;;;;;;;;;;;-0.70;99.90;;;;;;5030320;28;19928;-72
2022/11/27 01:17:21;;;;;;;;;;;-0.80;99.90;;;;;;5030889;28;20010;-72
2022/11/27 01:19:52;;;;;;;;;;;-0.80;99.90;;;;;;5026045;28;19965;-72
2022/11/27 01:22:24;;;;;;;;;;;-0.80;99.90;;;;;;5014551;28;19929;-72
2022/11/27 01:24:50;;;;;;;;;;;-0.70;99.90;;;;;;5029161;28;20338;-72
2022/11/27 01:27:22;;;;;;;;;;;-0.70;99.90;;;;;;5028312;28;19933;-72
2022/11/27 01:29:53;;;;;;;;;;;-0.70;99.90;;;;;;5027889;28;20431;-72
2022/11/27 01:32:20;;;;;;;;;;;-0.80;99.90;;;;;;5024615;28;19925;-73
2022/11/27 01:34:51;;;;;;;;;;;-0.70;99.90;;;;;;5037177;28;19932;-73
2022/11/27 01:37:23;;;;;;;;;;;-0.70;99.90;;;;;;5028184;28;20303;-72
2022/11/27 01:39:54;;;;;;;;;;;-0.60;99.90;;;;;;5029920;28;20299;-72
2022/11/27 01:42:26;;;;;;;;;;;-0.60;99.90;;;;;;5025328;28;19983;-72
2022/11/27 01:44:58;;;;;;;;;;;-0.60;99.90;;;;;;5040168;22;19937;-74
2022/11/27 01:47:32;;;;;;;;;;;-0.60;99.90;;;;;;5022739;28;19925;-74
2022/11/27 01:50:09;;;;;;;;;;;-0.60;99.90;;;;;;5049097;28;19924;-75
2022/11/27 01:52:43;;;;;;;;;;;-0.60;99.90;;;;;;5033399;28;19974;-74
2022/11/27 01:55:12;;;;;;;;;;;-0.60;99.90;;;;;;5043006;28;20060;-73
2022/11/27 01:57:46;;;;;;;;;;;-0.60;99.90;;;;;;4997029;28;19975;-73
2022/11/27 02:00:18;;;;;;;;;;;-0.60;99.90;;;;;;5004663;28;19983;-73
2022/11/27 02:02:50;;;;;;;;;;;-0.70;99.90;;;;;;5021830;28;19933;-75
2022/11/27 02:05:18;;;;;;;;;;;-0.70;99.90;;;;;;5019934;28;19936;-74
2022/11/27 02:07:51;;;;;;;;;;;-0.70;99.90;;;;;;5021826;28;19925;-74
2022/11/27 02:10:27;;;;;;;;;;;-0.70;99.90;;;;;;5019933;28;20064;-74
2022/11/27 02:13:01;;;;;;;;;;;-0.80;99.90;;;;;;5024659;28;20003;-73
2022/11/27 02:15:45;;;;;;;;;;;-0.80;99.90;;;;;;4998012;28;19960;-73
2022/11/27 02:18:16;;;;;;;;;;;-0.90;99.90;;;;;;5014696;28;19925;-75
2022/11/27 02:20:58;;;;;;;;;;;-0.90;99.90;;;;;;5036208;28;20305;-73
2022/11/27 02:23:30;;;;;;;;;;;-1.00;99.90;;;;;;5032869;28;19929;-73
2022/11/27 02:26:01;;;;;;;;;;;-1.00;99.90;;;;;;5031767;28;20007;-74
2022/11/27 02:28:40;;;;;;;;;;;-1.00;99.90;;;;;;5018832;28;19937;-74
2022/11/27 02:31:20;;;;;;;;;;;-1.10;99.90;;;;;;5031628;28;19929;-74
2022/11/27 02:33:54;;;;;;;;;;;-1.10;99.90;;;;;;5033672;28;19948;-75
2022/11/27 02:36:23;;;;;;;;;;;-1.20;99.90;;;;;;5032905;28;20456;-73
2022/11/27 02:39:03;;;;;;;;;;;-1.30;99.90;;;;;;5037061;28;19937;-73
2022/11/27 02:41:40;;;;;;;;;;;-1.20;99.90;;;;;;5024791;28;19926;-75
2022/11/27 02:44:12;;;;;;;;;;;-1.20;99.90;;;;;;5033578;28;20073;-74
2022/11/27 02:46:44;;;;;;;;;;;-1.20;99.90;;;;;;5014706;28;19936;-75
2022/11/27 02:49:17;;;;;;;;;;;-1.10;99.90;;;;;;5040057;28;19929;-74
2022/11/27 02:51:46;;;;;;;;;;;-1.10;99.90;;;;;;5010568;28;19933;-74
2022/11/27 02:54:20;;;;;;;;;;;-1.10;99.90;;;;;;5001049;28;19925;-73
2022/11/27 02:56:53;;;;;;;;;;;-1.00;99.90;;;;;;5034832;28;19932;-75
2022/11/27 02:59:27;;;;;;;;;;;-1.00;99.90;;;;;;5023142;28;20024;-74
2022/11/27 03:02:01;;;;;;;;;;;-1.00;99.90;;;;;;5025327;28;20273;-73
2022/11/27 03:04:39;;;;;;;;;;;-1.00;99.90;;;;;;5016592;28;20391;-72
2022/11/27 03:07:09;;;;;;;;;;;-1.00;99.90;;;;;;5034717;28;19929;-75
2022/11/27 03:09:39;;;;;;;;;;;-1.10;99.90;;;;;;5003878;28;20298;-75
2022/11/27 03:12:11;;;;;;;;;;;-1.30;99.90;;;;;;5036386;28;19926;-75
2022/11/27 03:14:44;;;;;;;;;;;-1.30;99.90;;;;;;5022189;28;19928;-75
2022/11/27 03:17:30;;;;;;;;;;;-1.40;99.90;;;;;;5037035;28;19983;-73
2022/11/27 03:20:18;;;;;;;;;;;-1.50;99.90;;;;;;5026718;28;19975;-74
2022/11/27 03:22:51;;;;;;;;;;;-1.60;99.90;;;;;;5020846;28;19928;-75
2022/11/27 03:25:17;;;;;;;;;;;-1.60;99.90;;;;;;5018859;28;20522;-73
2022/11/27 03:27:55;;;;;;;;;;;-1.70;99.90;;;;;;5024205;28;19929;-73
2022/11/27 03:30:22;;;;;;;;;;;-1.70;99.90;;;;;;5043775;28;19947;-74
2022/11/27 03:32:53;;;;;;;;;;;-1.70;99.90;;;;;;5038843;28;19929;-74
2022/11/27 03:35:25;;;;;;;;;;;-1.70;99.90;;;;;;5007708;28;19925;-73
2022/11/27 03:37:57;;;;;;;;;;;-1.70;99.90;;;;;;5044268;28;19947;-73
2022/11/27 03:40:34;;;;;;;;;;;-1.60;99.90;;;;;;5014548;28;19925;-72
2022/11/27 03:43:24;;;;;;;;;;;-1.60;99.90;;;;;;5026116;28;19983;-75
2022/11/27 03:45:55;;;;;;;;;;;-1.60;99.90;;;;;;5020047;28;19936;-74
2022/11/27 03:48:35;;;;;;;;;;;-1.60;99.90;;;;;;5039767;28;19960;-73
2022/11/27 03:51:10;;;;;;;;;;;-1.60;99.90;;;;;;5028552;28;20465;-74
2022/11/27 03:53:53;;;;;;;;;;;-1.60;99.90;;;;;;5028659;28;19929;-74
2022/11/27 03:56:31;;;;;;;;;;;-1.50;99.90;;;;;;5035843;28;20386;-75
2022/11/27 03:59:12;;;;;;;;;;;-1.50;99.90;;;;;;5018762;28;19929;-73
2022/11/27 04:01:44;;;;;;;;;;;-1.50;99.90;;;;;;5039420;28;19983;-74
2022/11/27 04:04:15;;;;;;;;;;;-1.50;99.90;;;;;;5040233;28;19929;-74
2022/11/27 04:06:47;;;;;;;;;;;-1.50;99.90;;;;;;5015398;28;20046;-75
2022/11/27 04:09:19;;;;;;;;;;;-1.50;99.90;;;;;;5041185;28;19929;-73
2022/11/27 04:11:50;;;;;;;;;;;-1.50;99.90;;;;;;5020771;28;19929;-74
2022/11/27 04:14:22;;;;;;;;;;;-1.40;99.90;;;;;;5042287;28;20451;-74
2022/11/27 04:16:53;;;;;;;;;;;-1.50;99.90;;;;;;5035151;28;19979;-75
2022/11/27 04:19:20;;;;;;;;;;;-1.50;99.90;;;;;;5041749;28;19955;-75
2022/11/27 04:21:51;;;;;;;;;;;-1.60;99.90;;;;;;5036268;28;20413;-75
2022/11/27 04:24:18;;;;;;;;;;;-1.60;99.90;;;;;;5026347;28;20322;-75
2022/11/27 04:26:50;;;;;;;;;;;-1.60;99.90;;;;;;5031022;28;20440;-73
2022/11/27 04:29:21;;;;;;;;;;;-1.60;99.90;;;;;;5035355;28;19983;-74
2022/11/27 04:31:53;;;;;;;;;;;-1.60;99.90;;;;;;5042214;28;20406;-75
2022/11/27 04:34:19;;;;;;;;;;;-1.60;99.90;;;;;;5021040;28;19925;-73
2022/11/27 04:36:46;;;;;;;;;;;-1.60;99.90;;;;;;5034803;28;19960;-74
2022/11/27 04:39:13;;;;;;;;;;;-1.60;99.90;;;;;;5008957;28;19933;-74
2022/11/27 04:41:44;;;;;;;;;;;-1.60;99.90;;;;;;5024718;28;20354;-74
2022/11/27 04:44:16;;;;;;;;;;;-1.60;99.90;;;;;;5020329;28;19975;-73
2022/11/27 04:46:42;;;;;;;;;;;-1.70;99.90;;;;;;5034518;28;19925;-74
2022/11/27 04:49:14;;;;;;;;;;;-1.70;99.90;;;;;;5017831;28;20156;-74
2022/11/27 04:51:40;;;;;;;;;;;-1.70;99.90;;;;;;5038604;28;20393;-72
2022/11/27 04:54:12;;;;;;;;;;;-1.80;99.90;;;;;;5020521;28;19928;-75
2022/11/27 04:56:39;;;;;;;;;;;-1.80;99.90;;;;;;5017010;28;19928;-75
2022/11/27 04:59:05;;;;;;;;;;;-1.80;99.90;;;;;;5024088;28;19979;-74
2022/11/27 05:01:37;;;;;;;;;;;-1.80;99.90;;;;;;5025243;28;20374;-75
2022/11/27 05:04:08;;;;;;;;;;;-1.80;99.90;;;;;;5023103;28;19929;-74
2022/11/27 05:06:40;;;;;;;;;;;-1.80;99.90;;;;;;5015043;28;19929;-74
2022/11/27 05:09:12;;;;;;;;;;;-1.70;99.90;;;;;;5020554;28;19936;-75
2022/11/27 05:11:43;;;;;;;;;;;-1.70;99.90;;;;;;5035175;28;20284;-74
2022/11/27 05:14:21;;;;;;;;;;;-1.70;99.90;;;;;;5020609;28;19930;-75
2022/11/27 05:16:54;;;;;;;;;;;-1.70;99.90;;;;;;5037732;28;20874;-75
2022/11/27 05:19:26;;;;;;;;;;;-1.70;99.90;;;;;;5020460;28;19924;-76
2022/11/27 05:21:58;;;;;;;;;;;-1.80;99.90;;;;;;5003563;28;19932;-74
2022/11/27 05:24:30;;;;;;;;;;;-1.80;99.90;;;;;;5036918;28;20272;-74
2022/11/27 05:27:01;;;;;;;;;;;-1.90;99.90;;;;;;5008089;28;19929;-74
2022/11/27 05:29:33;;;;;;;;;;;-1.90;99.90;;;;;;5021851;28;19932;-77
2022/11/27 05:31:59;;;;;;;;;;;-1.90;99.90;;;;;;5030189;28;19925;-73
2022/11/27 05:34:26;;;;;;;;;;;-1.90;99.90;;;;;;5016859;28;19929;-72
2022/11/27 05:36:53;;;;;;;;;;;-1.90;99.90;;;;;;5018127;28;20287;-74
2022/11/27 05:39:25;;;;;;;;;;;-2.00;99.90;;;;;;5022582;28;19929;-73
2022/11/27 05:41:56;;;;;;;;;;;-2.00;99.90;;;;;;4996349;28;19990;-73
2022/11/27 05:44:28;;;;;;;;;;;-2.10;99.90;;;;;;5026388;28;19979;-72
2022/11/27 05:46:55;;;;;;;;;;;-2.10;99.90;;;;;;5020028;28;19987;-70
2022/11/27 05:49:27;;;;;;;;;;;-2.20;99.90;;;;;;5026868;28;19929;-73
2022/11/27 05:51:59;;;;;;;;;;;-2.20;99.90;;;;;;5043168;28;19929;-74
2022/11/27 05:54:30;;;;;;;;;;;-2.20;99.90;;;;;;5017730;28;19929;-73
2022/11/27 05:57:02;;;;;;;;;;;-2.20;99.90;;;;;;5021932;28;19925;-73
2022/11/27 05:59:33;;;;;;;;;;;-2.20;99.90;;;;;;5038799;28;19935;-73
2022/11/27 06:02:05;;;;;;;;;;;-2.30;99.90;;;;;;5016941;28;20379;-73
2022/11/27 06:04:37;;;;;;;;;;;-2.30;99.90;;;;;;5020279;28;19991;-74
2022/11/27 06:07:08;;;;;;;;;;;-2.30;99.90;;;;;;5035715;28;19929;-74
2022/11/27 06:09:40;;;;;;;;;;;-2.40;99.90;;;;;;5026309;28;19975;-71
2022/11/27 06:12:11;;;;;;;;;;;-2.30;99.90;;;;;;5026994;28;19933;-74
2022/11/27 06:14:38;;;;;;;;;;;-2.30;99.90;;;;;;5019716;28;19925;-74
2022/11/27 06:17:04;;;;;;;;;;;-2.30;99.90;;;;;;5020993;28;19926;-74
2022/11/27 06:19:36;;;;;;;;;;;-2.20;99.90;;;;;;5011288;28;19933;-75
2022/11/27 06:22:08;;;;;;;;;;;-2.20;99.90;;;;;;5022057;28;19931;-74
2022/11/27 06:24:39;;;;;;;;;;;-2.20;99.90;;;;;;5020649;28;19951;-74
2022/11/27 06:27:06;;;;;;;;;;;-2.20;99.90;;;;;;5026294;28;20015;-76
2022/11/27 06:29:33;;;;;;;;;;;-2.20;99.90;;;;;;5032991;28;20004;-73
2022/11/27 06:32:05;;;;;;;;;;;-2.20;99.90;;;;;;5032829;28;19932;-74
2022/11/27 06:34:31;;;;;;;;;;;-2.10;99.90;;;;;;5030352;28;20389;-73
2022/11/27 06:37:03;;;;;;;;;;;-2.10;99.90;;;;;;5019302;28;19925;-75
2022/11/27 06:39:34;;;;;;;;;;;-2.10;99.90;;;;;;5021603;28;19929;-75
2022/11/27 06:42:06;;;;;;;;;;;-2.20;99.90;;;;;;5036467;28;19928;-74
2022/11/27 06:44:38;;;;;;;;;;;-2.20;99.90;;;;;;5022748;28;19925;-75
2022/11/27 06:47:09;;;;;;;;;;;-2.20;99.90;;;;;;5006860;28;19926;-74
2022/11/27 06:49:41;;;;;;;;;;;-2.20;99.90;;;;;;5019873;28;19944;-75
2022/11/27 06:52:12;;;;;;;;;;;-2.20;99.90;;;;;;5027372;28;20268;-75
2022/11/27 06:54:39;;;;;;;;;;;-2.20;99.90;;;;;;5040431;28;20350;-75
2022/11/27 06:57:12;;;;;;;;;;;-2.20;99.90;;;;;;5044975;28;19929;-75
2022/11/27 06:59:43;;;;;;;;;;;-2.20;99.90;;;;;;5042049;28;19925;-75
2022/11/27 07:02:12;;;;;;;;;;;-2.10;99.90;;;;;;5043501;28;19929;-75
2022/11/27 07:04:44;;;;;;;;;;;-2.10;99.90;;;;;;5040840;28;20083;-74
2022/11/27 07:07:16;;;;;;;;;;;-2.20;99.90;;;;;;5024753;28;19929;-74
2022/11/27 07:09:47;;;;;;;;;;;-2.20;99.90;;;;;;5044513;28;19948;-74
2022/11/27 07:12:19;;;;;;;;;;;-2.20;99.90;;;;;;5044588;28;20359;-75
2022/11/27 07:14:51;;;;;;;;;;;-2.20;99.90;;;;;;5024039;28;19941;-72
2022/11/27 07:17:22;;;;;;;;;;;-2.30;99.90;;;;;;5028125;28;20478;-76
2022/11/27 07:19:54;;;;;;;;;;;-2.20;99.90;;;;;;5031054;28;19929;-74
2022/11/27 07:22:25;;;;;;;;;;;-2.30;99.90;;;;;;5018927;28;19936;-75
2022/11/27 07:24:57;;;;;;;;;;;-2.40;99.90;;;;;;5034426;28;19925;-73
2022/11/27 07:27:28;;;;;;;;;;;-2.50;99.90;;;;;;5035231;28;19929;-76
2022/11/27 07:29:55;;;;;;;;;;;-2.50;99.90;;;;;;5025945;28;19933;-76
2022/11/27 07:32:26;;;;;;;;;;;-2.50;99.90;;;;;;5042215;28;19971;-73
2022/11/27 07:34:53;;;;;;;;;;;-2.50;99.90;;;;;;5013850;28;19936;-73
2022/11/27 07:37:20;;;;;;;;;;;-2.50;99.90;;;;;;5000310;28;19925;-74
2022/11/27 07:39:51;;;;;;;;;;;-2.50;99.90;;;;;;5020006;28;20350;-74
2022/11/27 07:42:23;;;;;;;;;;;-2.50;99.90;;;;;;5032710;28;19975;-75
2022/11/27 07:44:55;;;;;;;;;;;-2.50;99.90;;;;;;5031002;28;20453;-75
2022/11/27 07:47:28;;;;;;;;;;;-2.50;99.90;;;;;;5035233;28;19932;-75
2022/11/27 07:49:59;;;;;;;;;;;-2.40;99.90;;;;;;5035736;28;19991;-76
2022/11/27 07:52:31;;;;;;;;;;;-2.40;99.90;;;;;;5034302;28;19932;-75
2022/11/27 07:55:03;;;;;;;;;;;-2.50;99.90;;;;;;5012993;28;19980;-73
2022/11/27 07:57:34;;;;;;;;;;;-2.40;99.90;;;;;;5022944;28;20288;-73
2022/11/27 08:00:02;;;;;;;;;;;-2.40;99.90;;;;;;5038904;28;20453;-75
2022/11/27 08:02:30;;;;;;;;;;;-2.40;99.90;;;;;;5027925;28;19934;-75
2022/11/27 08:04:56;;;;;;;;;;;-2.30;99.90;;;;;;5020431;28;20026;-74
2022/11/27 08:07:29;;;;;;;;;;;-2.30;99.90;;;;;;5021754;28;19932;-74
2022/11/27 08:09:59;;;;;;;;;;;-2.20;99.90;;;;;;5021224;28;19960;-79
2022/11/27 08:12:26;;;;;;;;;;;-2.20;99.90;;;;;;5028045;28;19968;-75
2022/11/27 08:14:52;;;;;;;;;;;-2.20;99.90;;;;;;5012371;28;19925;-75
2022/11/27 08:17:19;;;;;;;;;;;-2.10;99.90;;;;;;4995146;28;19933;-76
2022/11/27 08:19:50;;;;;;;;;;;-2.00;99.90;;;;;;5032588;28;19925;-76
2022/11/27 08:22:22;;;;;;;;;;;-2.00;99.90;;;;;;5020899;28;19925;-74
2022/11/27 08:24:54;;;;;;;;;;;-2.00;99.90;;;;;;5013316;28;19933;-76
2022/11/27 08:27:25;;;;;;;;;;;-2.00;99.90;;;;;;5010687;28;19933;-73
2022/11/27 08:29:52;;;;;;;;;;;-1.90;99.90;;;;;;5013452;28;19925;-75
2022/11/27 08:32:23;;;;;;;;;;;-1.80;99.90;;;;;;4999808;28;19928;-75
2022/11/27 08:34:50;;;;;;;;;;;-1.90;99.90;;;;;;5010995;28;19929;-75
2022/11/27 08:37:16;;;;;;;;;;;-1.90;99.90;;;;;;5035192;28;20303;-74
2022/11/27 08:39:48;;;;;;;;;;;-1.90;99.90;;;;;;5008601;28;20265;-77
2022/11/27 08:42:19;;;;;;;;;;;-1.80;99.90;;;;;;5037156;28;19929;-72
2022/11/27 08:44:51;;;;;;;;;;;-1.80;99.90;;;;;;5032567;28;20729;-75
2022/11/27 08:47:18;;;;;;;;;;;-1.80;99.90;;;;;;5005170;28;19983;-74
2022/11/27 08:49:49;;;;;;;;;;;-1.70;99.90;;;;;;5023685;28;19988;-74
2022/11/27 08:52:21;;;;;;;;;;;-1.70;99.90;;;;;;5033771;28;19925;-74
2022/11/27 08:54:53;;;;;;;;;;;-1.70;99.90;;;;;;5031929;28;19929;-74
2022/11/27 08:57:19;;;;;;;;;;;-1.60;99.90;;;;;;5017892;28;19925;-74
2022/11/27 08:59:51;;;;;;;;;;;-1.60;99.90;;;;;;5025485;28;20333;-79
2022/11/27 09:02:22;;;;;;;;;;;-1.60;99.90;;;;;;5027301;28;19940;-75
2022/11/27 09:04:54;;;;;;;;;;;-1.50;99.90;;;;;;5030496;28;19929;-75
2022/11/27 09:07:25;;;;;;;;;;;-1.40;99.90;;;;;;5031714;28;19928;-75
2022/11/27 09:09:57;;;;;;;;;;;-1.40;99.90;;;;;;5033326;28;19932;-74
2022/11/27 09:12:24;;;;;;;;;;;-1.40;99.90;;;;;;5032568;28;20315;-74
2022/11/27 09:14:50;;;;;;;;;;;-1.30;99.90;;;;;;5030214;28;19933;-74
2022/11/27 09:17:22;;;;;;;;;;;-1.20;99.90;;;;;;5020586;28;20310;-79
2022/11/27 09:19:53;;;;;;;;;;;-1.20;99.90;;;;;;5032895;28;19932;-77
2022/11/27 09:22:25;;;;;;;;;;;-1.20;99.90;;;;;;5025640;28;20452;-75
2022/11/27 09:24:57;;;;;;;;;;;-1.10;99.90;;;;;;5011839;28;19933;-74
2022/11/27 09:27:24;;;;;;;;;;;-1.10;99.90;;;;;;5034546;28;19979;-78
2022/11/27 09:29:51;;;;;;;;;;;-1.10;99.90;;;;;;5034204;28;19990;-75
2022/11/27 09:32:22;;;;;;;;;;;-1.20;99.90;;;;;;5026635;28;19979;-77
2022/11/27 09:34:54;;;;;;;;;;;-1.20;99.90;;;;;;5030314;28;19935;-76
2022/11/27 09:37:25;;;;;;;;;;;-1.10;99.90;;;;;;5035671;28;20268;-76
2022/11/27 09:39:54;;;;;;;;;;;-1.10;99.90;;;;;;5030973;28;20405;-75
2022/11/27 09:42:29;;;;;;;;;;;-1.10;99.90;;;;;;5045361;28;19974;-75
2022/11/27 09:45:02;;;;;;;;;;;-1.20;99.90;;;;;;5033490;28;19929;-75
2022/11/27 09:47:53;;;;;;;;;;;-1.30;99.90;;;;;;5028980;28;19925;-75
2022/11/27 09:50:23;;;;;;;;;;;-1.50;99.90;;;;;;5032219;28;19979;-80
2022/11/27 09:53:13;;;;;;;;;;;-1.60;99.90;;;;;;5035387;28;19925;-75
2022/11/27 09:55:46;;;;;;;;;;;-1.40;99.90;;;;;;5018994;28;19925;-75
2022/11/27 09:58:21;;;;;;;;;;;-1.30;99.90;;;;;;5032199;28;19924;-75
2022/11/27 10:00:52;;;;;;;;;;;-1.20;99.90;;;;;;5019523;28;19925;-75
2022/11/27 10:03:25;;;;;;;;;;;-1.10;99.90;;;;;;5006025;28;19929;-76
2022/11/27 10:06:04;;;;;;;;;;;-1.00;99.90;;;;;;5017975;28;19933;-75
2022/11/27 10:08:44;;;;;;;;;;;-0.90;99.90;;;;;;5019000;28;19936;-75
2022/11/27 10:11:20;;;;;;;;;;;-0.70;99.90;;;;;;5013529;28;19936;-75
2022/11/27 10:14:11;;;;;;;;;;;-0.60;99.90;;;;;;5039706;28;19925;-75
2022/11/27 10:16:41;;;;;;;;;;;-0.50;99.90;;;;;;5030400;28;19929;-75
2022/11/27 10:19:19;;;;;;;;;;;-0.40;99.90;;;;;;5013636;28;19929;-76
2022/11/27 10:22:09;;;;;;;;;;;-0.30;99.90;;;;;;5035514;28;20346;-79
2022/11/27 10:24:45;;;;;;;;;;;-0.20;99.90;;;;;;5021302;28;20379;-74
2022/11/27 10:27:36;;;;;;;;;;;-0.20;99.90;;;;;;5025592;28;19925;-74
2022/11/27 10:30:15;;;;;;;;;;;-0.20;99.90;;;;;;5033211;28;19925;-74
2022/11/27 10:32:48;;;;;;;;;;;-0.10;99.90;;;;;;5030311;28;19937;-74
2022/11/27 10:35:22;;;;;;;;;;;-0.10;99.90;;;;;;5017623;28;20011;-74
2022/11/27 10:37:55;;;;;;;;;;;-0.10;99.90;;;;;;5020148;28;19976;-72
2022/11/27 10:40:33;;;;;;;;;;;0.00;99.90;;;;;;4998081;28;19975;-74
2022/11/27 10:43:06;;;;;;;;;;;0.00;99.90;;;;;;5029627;28;19929;-76
2022/11/27 10:45:38;;;;;;;;;;;0.10;99.90;;;;;;5022064;28;20398;-74
2022/11/27 10:48:11;;;;;;;;;;;0.20;99.90;;;;;;5042339;28;19979;-75
2022/11/27 10:50:44;;;;;;;;;;;0.20;99.90;;;;;;5038216;28;19926;-74
2022/11/27 10:53:28;;;;;;;;;;;0.30;99.90;;;;;;5037597;28;19951;-76
2022/11/27 10:56:15;;;;;;;;;;;0.40;99.90;;;;;;5031056;28;19929;-74
2022/11/27 10:58:50;;;;;;;;;;;0.40;99.90;;;;;;5028510;28;19929;-75
2022/11/27 11:01:23;;;;;;;;;;;0.50;99.90;;;;;;5015485;28;19925;-74
2022/11/27 11:04:05;;;;;;;;;;;0.50;99.90;;;;;;5033076;28;20325;-75
2022/11/27 11:06:41;;;;;;;;;;;0.60;99.90;;;;;;5013227;28;19987;-75
2022/11/27 11:09:13;;;;;;;;;;;0.70;99.90;;;;;;4998353;28;19929;-77
2022/11/27 11:11:44;;;;;;;;;;;0.70;99.90;;;;;;5016994;28;19979;-76
2022/11/27 11:14:23;;;;;;;;;;;0.80;99.90;;;;;;5025236;28;19931;-73
2022/11/27 11:16:55;;;;;;;;;;;0.80;99.90;;;;;;5029791;28;19937;-75
2022/11/27 11:19:29;;;;;;;;;;;0.80;99.90;;;;;;5036488;28;19951;-73
2022/11/27 11:22:08;;;;;;;;;;;0.90;99.90;;;;;;5027228;28;19961;-73
2022/11/27 11:24:43;;;;;;;;;;;1.00;99.90;;;;;;5034129;28;19933;-76
2022/11/27 11:27:19;;;;;;;;;;;1.10;99.90;;;;;;5033887;28;20573;-77
2022/11/27 11:29:57;;;;;;;;;;;1.20;99.90;;;;;;5033061;28;19986;-74
2022/11/27 11:32:33;;;;;;;;;;;1.20;99.90;;;;;;5036229;28;19924;-74
2022/11/27 11:35:22;;;;;;;;;;;1.30;99.90;;;;;;5009793;28;19933;-75
2022/11/27 11:37:53;;;;;;;;;;;1.40;99.90;;;;;;5035937;28;19932;-75
2022/11/27 11:40:26;;;;;;;;;;;1.50;99.90;;;;;;5035408;28;20001;-74
2022/11/27 11:43:03;;;;;;;;;;;1.60;99.90;;;;;;5030080;28;19932;-74
2022/11/27 11:45:43;;;;;;;;;;;1.60;99.90;;;;;;5016928;28;20453;-74
2022/11/27 11:48:27;;;;;;;;;;;1.60;99.90;;;;;;5036535;28;19925;-75
2022/11/27 11:51:01;;;;;;;;;;;1.60;99.90;;;;;;5031677;28;19987;-74
2022/11/27 11:53:37;;;;;;;;;;;1.70;99.90;;;;;;5025709;28;20379;-74
2022/11/27 11:56:19;;;;;;;;;;;1.70;99.90;;;;;;5016786;28;20379;-76
2022/11/27 11:58:56;;;;;;;;;;;1.80;99.90;;;;;;5043630;28;19935;-75
2022/11/27 12:01:31;;;;;;;;;;;1.80;99.90;;;;;;5021609;28;19933;-75
2022/11/27 12:04:20;;;;;;;;;;;1.80;99.90;;;;;;5038633;28;19972;-78
2022/11/27 12:07:10;;;;;;;;;;;1.80;99.90;;;;;;4990915;28;19925;-73
2022/11/27 12:09:57;;;;;;;;;;;1.90;99.90;;;;;;5042802;28;19924;-74
2022/11/27 12:12:32;;;;;;;;;;;2.00;99.90;;;;;;5042978;28;19925;-73
2022/11/27 12:15:11;;;;;;;;;;;2.00;99.90;;;;;;5007286;28;19972;-72
2022/11/27 12:17:43;;;;;;;;;;;1.90;99.90;;;;;;5029165;28;20395;-75
2022/11/27 12:20:15;;;;;;;;;;;1.80;99.90;;;;;;5033539;28;20002;-72
2022/11/27 12:23:04;;;;;;;;;;;1.80;99.90;;;;;;5033353;28;19961;-74
2022/11/27 12:25:37;;;;;;;;;;;1.80;99.90;;;;;;5011358;28;19995;-74
2022/11/27 12:28:19;;;;;;;;;;;1.80;99.90;;;;;;5032485;28;19933;-75
2022/11/27 12:30:53;;;;;;;;;;;1.80;99.90;;;;;;4997508;28;19959;-75
2022/11/27 12:33:45;;;;;;;;;;;1.80;99.90;;;;;;5045616;28;20345;-75
2022/11/27 12:36:16;;;;;;;;;;;1.70;99.90;;;;;;5027152;28;20008;-72
2022/11/27 12:38:48;;;;;;;;;;;1.70;99.90;;;;;;5022726;28;19933;-75
2022/11/27 12:41:23;;;;;;;;;;;1.80;99.90;;;;;;5043254;28;19983;-75
2022/11/27 12:43:59;;;;;;;;;;;1.80;99.90;;;;;;5030594;28;19979;-73
2022/11/27 12:46:34;;;;;;;;;;;1.70;99.90;;;;;;5013769;28;20009;-75
2022/11/27 12:49:32;;;;;;;;;;;1.80;99.90;;;;;;5035714;28;19929;-74
2022/11/27 12:52:23;;;;;;;;;;;1.80;99.90;;;;;;5017632;28;19925;-74
2022/11/27 12:55:05;;;;;;;;;;;1.80;99.90;;;;;;5036962;28;19932;-75
2022/11/27 12:57:37;;;;;;;;;;;1.90;99.90;;;;;;5017102;28;19933;-75
2022/11/27 13:00:16;;;;;;;;;;;1.90;99.90;;;;;;5030470;28;20276;-76
2022/11/27 13:03:07;;;;;;;;;;;1.90;99.90;;;;;;5022996;28;19933;-73
2022/11/27 13:05:46;;;;;;;;;;;1.90;99.90;;;;;;5037552;28;20341;-74
2022/11/27 13:08:15;;;;;;;;;;;1.90;99.90;;;;;;5005304;28;19975;-74
2022/11/27 13:10:50;;;;;;;;;;;2.00;99.90;;;;;;5019553;28;19925;-75
2022/11/27 13:13:41;;;;;;;;;;;2.10;99.90;;;;;;5032344;28;20040;-75
2022/11/27 13:16:22;;;;;;;;;;;2.20;99.90;;;;;;5024531;28;19933;-75
2022/11/27 13:18:56;;;;;;;;;;;2.30;99.90;;;;;;5028840;28;19929;-74
2022/11/27 13:21:30;;;;;;;;;;;2.30;99.90;;;;;;5018013;28;19932;-73
2022/11/27 13:24:02;;;;;;;;;;;2.40;99.90;;;;;;5022727;28;19929;-74
2022/11/27 13:26:37;;;;;;;;;;;2.40;99.90;;;;;;5013812;28;19979;-72
2022/11/27 13:29:27;;;;;;;;;;;2.40;99.90;;;;;;5027543;28;19929;-75
2022/11/27 13:32:00;;;;;;;;;;;2.40;99.90;;;;;;5036786;28;19944;-75
2022/11/27 13:34:40;;;;;;;;;;;2.40;99.90;;;;;;5029769;28;19979;-72
2022/11/27 13:37:38;;;;;;;;;;;2.50;99.90;;;;;;5014728;28;19950;-75
2022/11/27 13:40:25;;;;;;;;;;;2.50;99.90;;;;;;5032653;28;19987;-75
2022/11/27 13:42:59;;;;;;;;;;;2.60;99.90;;;;;;5014854;28;20011;-72
2022/11/27 13:45:31;;;;;;;;;;;2.60;99.90;;;;;;5011845;28;20063;-74
2022/11/27 13:48:16;;;;;;;;;;;2.70;99.90;;;;;;5006668;28;19966;-75
2022/11/27 13:50:43;;;;;;;;;;;2.80;99.90;;;;;;5032081;28;19929;-74
2022/11/27 13:53:15;;;;;;;;;;;2.90;99.90;;;;;;5019640;28;20026;-75
2022/11/27 13:55:55;;;;;;;;;;;2.90;99.90;;;;;;5017277;28;19925;-75
2022/11/27 13:58:45;;;;;;;;;;;3.00;99.90;;;;;;5017638;28;19980;-75
2022/11/27 14:01:21;;;;;;;;;;;3.10;99.90;;;;;;5020833;28;20717;-74
2022/11/27 14:03:48;;;;;;;;;;;3.10;99.90;;;;;;5023107;28;19929;-75
2022/11/27 14:06:15;;;;;;;;;;;3.20;99.90;;;;;;5022863;28;19935;-73
2022/11/27 14:08:55;;;;;;;;;;;3.20;99.90;;;;;;4996150;28;19929;-73
2022/11/27 14:11:30;;;;;;;;;;;3.20;99.90;;;;;;5029177;28;19929;-72
2022/11/27 14:14:10;;;;;;;;;;;3.20;99.90;;;;;;5024726;28;20288;-74
2022/11/27 14:16:51;;;;;;;;;;;3.30;99.90;;;;;;5026168;28;19936;-74
2022/11/27 14:19:27;;;;;;;;;;;3.30;99.90;;;;;;5027376;28;19979;-75
2022/11/27 14:21:59;;;;;;;;;;;3.20;99.90;;;;;;5029838;28;19935;-76
2022/11/27 14:24:43;;;;;;;;;;;3.30;99.90;;;;;;5029563;28;19925;-73
2022/11/27 14:27:19;;;;;;;;;;;3.30;99.90;;;;;;5005124;28;20003;-75
2022/11/27 14:29:51;;;;;;;;;;;3.30;99.90;;;;;;5021173;28;19929;-74
2022/11/27 14:32:19;;;;;;;;;;;3.30;99.90;;;;;;5011032;28;19933;-74
2022/11/27 14:34:49;;;;;;;;;;;3.30;99.90;;;;;;5017058;28;19928;-73
2022/11/27 14:37:25;;;;;;;;;;;3.30;99.90;;;;;;4999311;28;19953;-71
2022/11/27 14:39:56;;;;;;;;;;;3.30;99.90;;;;;;5018767;28;20381;-74
2022/11/27 14:42:29;;;;;;;;;;;3.30;99.90;;;;;;5010095;28;20303;-73
2022/11/27 14:45:05;;;;;;;;;;;3.30;99.90;;;;;;5030157;28;19929;-73
2022/11/27 14:47:32;;;;;;;;;;;3.30;99.90;;;;;;4996926;28;19929;-74
2022/11/27 14:50:04;;;;;;;;;;;3.30;99.90;;;;;;5021226;28;19929;-75
2022/11/27 14:52:35;;;;;;;;;;;3.20;99.90;;;;;;5002671;28;19933;-72
2022/11/27 14:55:02;;;;;;;;;;;3.20;99.90;;;;;;5022766;28;19956;-74
2022/11/27 14:57:29;;;;;;;;;;;3.10;99.90;;;;;;5006279;28;19932;-72